createdAt,value
2022-11-04T00:00:13.403Z,94586.4
2022-11-04T00:01:16.038Z,94587
2022-11-04T00:02:18.896Z,94581.8
2022-11-04T00:03:21.409Z,94585.3
2022-11-04T00:04:23.326Z,94579.2
2022-11-04T00:05:25.799Z,94585
2022-11-04T00:06:28.292Z,94590.7
2022-11-04T00:07:30.192Z,94590.5
2022-11-04T00:08:32.366Z,94596.3
2022-11-04T00:09:34.837Z,94596
2022-11-04T00:10:37.301Z,94593.3
2022-11-04T00:11:39.499Z,94597.7
2022-11-04T00:12:41.981Z,94601.2
2022-11-04T00:13:44.456Z,94608.1
2022-11-04T00:14:46.921Z,94606.9
2022-11-04T00:15:49.391Z,94615.2
2022-11-04T00:16:51.919Z,94612.3
2022-11-04T00:17:54.133Z,94608.5
2022-11-04T00:18:56.303Z,94616.6
2022-11-04T00:19:58.812Z,94621.3
2022-11-04T00:21:01.278Z,94621.8
2022-11-04T00:22:03.770Z,94618.6
2022-11-04T00:23:07.305Z,94621.1
2022-11-04T00:24:10.255Z,94620
2022-11-04T00:25:12.448Z,94615.7
2022-11-04T00:26:14.654Z,94617.8
2022-11-04T00:27:16.847Z,94613
2022-11-04T00:28:19.322Z,94620.8
2022-11-04T00:29:21.230Z,94609.4
2022-11-04T00:30:23.434Z,94617.3
2022-11-04T00:31:25.632Z,94619.4
2022-11-04T00:32:27.888Z,94611.2
2022-11-04T00:33:30.393Z,94619.7
2022-11-04T00:34:32.572Z,94616.3
2022-11-04T00:35:35.033Z,94624.8
2022-11-04T00:36:37.216Z,94637.1
2022-11-04T00:37:39.713Z,94629.2
2022-11-04T00:38:42.192Z,94628.4
2022-11-04T00:39:44.680Z,94630.8
2022-11-04T00:40:46.613Z,94633.5
2022-11-04T00:41:48.257Z,94634.5
2022-11-04T00:42:50.739Z,94634.3
2022-11-04T00:43:52.660Z,94638
2022-11-04T00:44:55.132Z,94638.1
2022-11-04T00:45:57.616Z,94647.1
2022-11-04T00:47:00.106Z,94636.5
2022-11-04T00:48:02.631Z,94645.4
2022-11-04T00:49:04.881Z,94652.7
2022-11-04T00:50:07.078Z,94643.6
2022-11-04T00:51:09.719Z,94645.6
2022-11-04T00:52:11.702Z,94647.8
2022-11-04T00:53:13.921Z,94644.1
2022-11-04T00:54:16.394Z,94647.2
2022-11-04T00:55:18.300Z,94664
2022-11-04T00:56:20.479Z,94644.6
2022-11-04T00:57:22.958Z,94651.3
2022-11-04T00:58:25.450Z,94654.5
2022-11-04T00:59:27.353Z,94651.6
2022-11-04T01:00:29.578Z,94662.7
2022-11-04T01:01:32.553Z,94670.2
2022-11-04T01:02:35.680Z,94670
2022-11-04T01:03:38.432Z,94667.6
2022-11-04T01:04:40.919Z,94672.7
2022-11-04T01:05:43.422Z,94675.6
2022-11-04T01:06:45.897Z,94674.9
2022-11-04T01:07:48.092Z,94677.3
2022-11-04T01:08:50.319Z,94675.6
2022-11-04T01:09:52.507Z,94677
2022-11-04T01:10:55.045Z,94677.7
2022-11-04T01:11:57.518Z,94679
2022-11-04T01:12:59.712Z,94687.1
2022-11-04T01:14:01.886Z,94684.9
2022-11-04T01:15:04.362Z,94688.9
2022-11-04T01:16:06.930Z,94691.5
2022-11-04T01:17:09.129Z,94699.4
2022-11-04T01:18:12.273Z,94694.6
2022-11-04T01:19:14.814Z,94690.7
2022-11-04T01:20:17.294Z,94695.8
2022-11-04T01:21:19.493Z,94697.1
2022-11-04T01:22:21.422Z,94696.5
2022-11-04T01:23:23.898Z,94686.1
2022-11-04T01:24:26.107Z,94691.3
2022-11-04T01:25:28.322Z,94685.8
2022-11-04T01:26:30.525Z,94683
2022-11-04T01:27:33.005Z,94686.4
2022-11-04T01:28:35.203Z,94680.8
2022-11-04T01:29:37.402Z,94674.8
2022-11-04T01:30:39.875Z,94679.5
2022-11-04T01:31:42.078Z,94674
2022-11-04T01:32:44.268Z,94676
2022-11-04T01:33:46.502Z,94680.4
2022-11-04T01:34:49.030Z,94677.2
2022-11-04T01:35:51.528Z,94674.6
2022-11-04T01:36:53.425Z,94666.1
2022-11-04T01:37:55.329Z,94670.8
2022-11-04T01:38:57.548Z,94668.5
2022-11-04T01:39:59.757Z,94668.8
2022-11-04T01:41:01.974Z,94665.3
2022-11-04T01:42:05.543Z,94667.6
2022-11-04T01:43:08.347Z,94664.7
2022-11-04T01:44:11.421Z,94655.4
2022-11-04T01:45:13.343Z,94654.6
2022-11-04T01:46:15.809Z,94650.8
2022-11-04T01:47:18.275Z,94656.6
2022-11-04T01:48:20.750Z,94644
2022-11-04T01:49:22.943Z,94645.3
2022-11-04T01:50:25.206Z,94643.8
2022-11-04T01:51:27.683Z,94640.6
2022-11-04T01:52:29.875Z,94648.4
2022-11-04T01:53:32.074Z,94641.2
2022-11-04T01:54:34.545Z,94644.2
2022-11-04T01:55:36.733Z,94636.8
2022-11-04T01:56:38.954Z,94634.5
2022-11-04T01:57:40.581Z,94630.3
2022-11-04T01:58:42.774Z,94623.9
2022-11-04T01:59:45.001Z,94625
2022-11-04T02:00:47.191Z,94627
2022-11-04T02:01:49.319Z,94624.4
2022-11-04T02:02:51.281Z,94619.2
2022-11-04T02:03:53.772Z,94619.7
2022-11-04T02:04:55.963Z,94617.9
2022-11-04T02:05:57.932Z,94615.1
2022-11-04T02:07:00.810Z,94617.9
2022-11-04T02:08:03.003Z,94622.3
2022-11-04T02:09:05.767Z,94616.2
2022-11-04T02:10:08.321Z,94614
2022-11-04T02:11:10.807Z,94613.9
2022-11-04T02:12:13.311Z,94611.1
2022-11-04T02:13:15.491Z,94607.7
2022-11-04T02:14:17.977Z,94608.8
2022-11-04T02:15:20.171Z,94613.5
2022-11-04T02:16:22.386Z,94617.8
2022-11-04T02:17:24.573Z,94615.2
2022-11-04T02:18:26.490Z,94613.3
2022-11-04T02:19:28.402Z,94617.1
2022-11-04T02:20:30.036Z,94616.6
2022-11-04T02:21:32.568Z,94619.1
2022-11-04T02:22:35.056Z,94615.7
2022-11-04T02:23:36.699Z,94616.6
2022-11-04T02:24:39.179Z,94619
2022-11-04T02:25:40.984Z,94617
2022-11-04T02:26:43.479Z,94620.3
2022-11-04T02:27:45.971Z,94624.9
2022-11-04T02:28:48.442Z,94622.6
2022-11-04T02:29:50.359Z,94625.6
2022-11-04T02:30:52.836Z,94625.3
2022-11-04T02:31:55.315Z,94626.7
2022-11-04T02:32:57.510Z,94634.5
2022-11-04T02:33:59.707Z,94638.8
2022-11-04T02:35:01.914Z,94644.3
2022-11-04T02:36:04.102Z,94639.6
2022-11-04T02:37:06.126Z,94639.4
2022-11-04T02:38:08.617Z,94642.3
2022-11-04T02:39:10.827Z,94641.2
2022-11-04T02:40:13.042Z,94644.5
2022-11-04T02:41:15.239Z,94643.8
2022-11-04T02:42:17.453Z,94646.1
2022-11-04T02:43:19.925Z,94646.4
2022-11-04T02:44:22.111Z,94645.9
2022-11-04T02:45:24.319Z,94642
2022-11-04T02:46:26.524Z,94642.3
2022-11-04T02:47:29.046Z,94641.4
2022-11-04T02:48:31.223Z,94646.9
2022-11-04T02:49:33.160Z,94647.1
2022-11-04T02:50:35.361Z,94647.3
2022-11-04T02:51:37.870Z,94642.4
2022-11-04T02:52:40.113Z,94644.8
2022-11-04T02:53:42.604Z,94647.1
2022-11-04T02:54:44.804Z,94645.6
2022-11-04T02:55:46.711Z,94643.7
2022-11-04T02:56:49.199Z,94644.1
2022-11-04T02:57:51.722Z,94637.3
2022-11-04T02:58:54.205Z,94637.1
2022-11-04T02:59:56.668Z,94638.5
2022-11-04T03:00:59.393Z,94635
2022-11-04T03:02:02.108Z,94624.2
2022-11-04T03:03:04.352Z,94631
2022-11-04T03:04:06.856Z,94625.9
2022-11-04T03:05:08.776Z,94631
2022-11-04T03:06:10.955Z,94620.4
2022-11-04T03:07:13.265Z,94619
2022-11-04T03:08:16.027Z,94622.1
2022-11-04T03:09:18.536Z,94615
2022-11-04T03:10:20.706Z,94615.4
2022-11-04T03:11:23.199Z,94617.2
2022-11-04T03:12:25.669Z,94617.2
2022-11-04T03:13:28.186Z,94614.3
2022-11-04T03:14:30.353Z,94612.8
2022-11-04T03:15:32.571Z,94614.3
2022-11-04T03:16:34.201Z,94616.4
2022-11-04T03:17:36.110Z,94615.2
2022-11-04T03:18:38.308Z,94613.6
2022-11-04T03:19:40.503Z,94612.4
2022-11-04T03:20:42.711Z,94615
2022-11-04T03:21:44.904Z,94619.3
2022-11-04T03:22:47.105Z,94621
2022-11-04T03:23:49.360Z,94618.5
2022-11-04T03:24:51.608Z,94621.2
2022-11-04T03:25:53.819Z,94624.1
2022-11-04T03:26:56.017Z,94628.3
2022-11-04T03:27:58.495Z,94627.5
2022-11-04T03:29:00.517Z,94636.5
2022-11-04T03:30:03.344Z,94635.5
2022-11-04T03:31:05.960Z,94639.6
2022-11-04T03:32:08.439Z,94627.1
2022-11-04T03:33:12.576Z,94626.8
2022-11-04T03:34:14.784Z,94627.7
2022-11-04T03:35:16.680Z,94626.8
2022-11-04T03:36:18.889Z,94630.2
2022-11-04T03:37:20.811Z,94626.8
2022-11-04T03:38:23.009Z,94624.1
2022-11-04T03:39:25.261Z,94623.5
2022-11-04T03:40:27.750Z,94623
2022-11-04T03:41:29.958Z,94622.7
2022-11-04T03:42:32.430Z,94625.4
2022-11-04T03:43:34.614Z,94626
2022-11-04T03:44:36.832Z,94627.9
2022-11-04T03:45:38.475Z,94626.7
2022-11-04T03:46:40.666Z,94624.5
2022-11-04T03:47:43.151Z,94624.6
2022-11-04T03:48:45.622Z,94624.3
2022-11-04T03:49:47.832Z,94628.5
2022-11-04T03:50:50.314Z,94628
2022-11-04T03:51:52.251Z,94632.6
2022-11-04T03:52:54.450Z,94631.4
2022-11-04T03:53:56.390Z,94638.3
2022-11-04T03:54:58.941Z,94633.2
2022-11-04T03:56:01.571Z,94627.5
2022-11-04T03:57:03.570Z,94621.2
2022-11-04T03:58:06.636Z,94618
2022-11-04T03:59:09.425Z,94614.8
2022-11-04T04:00:11.940Z,94613
2022-11-04T04:01:14.651Z,94613
2022-11-04T04:02:17.177Z,94608.6
2022-11-04T04:03:19.251Z,94606.7
2022-11-04T04:04:21.732Z,94608.8
2022-11-04T04:05:23.622Z,94603.9
2022-11-04T04:06:26.099Z,94608.6
2022-11-04T04:07:28.010Z,94604.7
2022-11-04T04:08:30.217Z,94604.1
2022-11-04T04:09:32.682Z,94602.4
2022-11-04T04:10:35.210Z,94597.9
2022-11-04T04:11:37.167Z,94600.4
2022-11-04T04:12:39.655Z,94595.5
2022-11-04T04:13:41.852Z,94596.9
2022-11-04T04:14:43.779Z,94596.7
2022-11-04T04:15:46.001Z,94602.4
2022-11-04T04:16:48.484Z,94603.2
2022-11-04T04:17:50.684Z,94603.7
2022-11-04T04:19:57.303Z,94605.5
2022-11-04T04:20:59.232Z,94608.9
2022-11-04T04:22:01.429Z,94614.7
2022-11-04T04:23:03.332Z,94617.7
2022-11-04T04:24:05.808Z,94616.7
2022-11-04T04:25:08.013Z,94622.4
2022-11-04T04:26:10.269Z,94622.4
2022-11-04T04:27:12.210Z,94624.5
2022-11-04T04:28:14.401Z,94625
2022-11-04T04:29:16.611Z,94622.1
2022-11-04T04:30:19.072Z,94622.1
2022-11-04T04:31:21.304Z,94622
2022-11-04T04:32:24.219Z,94619.4
2022-11-04T04:33:26.717Z,94617.8
2022-11-04T04:34:28.636Z,94616.7
2022-11-04T04:35:30.575Z,94616.2
2022-11-04T04:36:33.045Z,94614.8
2022-11-04T04:37:35.531Z,94615
2022-11-04T04:38:38.009Z,94613.2
2022-11-04T04:39:40.505Z,94607.9
2022-11-04T04:40:42.924Z,94611.1
2022-11-04T04:41:45.264Z,94604.9
2022-11-04T04:42:47.781Z,94606.6
2022-11-04T04:43:50.319Z,94615.2
2022-11-04T04:44:52.843Z,94621
2022-11-04T04:45:55.348Z,94626.3
2022-11-04T04:46:57.863Z,94628.7
2022-11-04T04:48:00.081Z,94634
2022-11-04T04:49:02.005Z,94630.6
2022-11-04T04:50:04.225Z,94635.1
2022-11-04T04:51:06.711Z,94630.9
2022-11-04T04:52:09.192Z,94634
2022-11-04T04:53:12.872Z,94634.5
2022-11-04T04:54:15.081Z,94636
2022-11-04T04:55:17.281Z,94632.9
2022-11-04T04:56:19.776Z,94630.4
2022-11-04T04:57:22.049Z,94632.4
2022-11-04T04:58:24.281Z,94625.4
2022-11-04T04:59:26.756Z,94625.7
2022-11-04T05:00:28.986Z,94627.9
2022-11-04T05:01:31.930Z,94628.5
2022-11-04T05:02:35.288Z,94629.3
2022-11-04T05:04:42.880Z,94628.5
2022-11-04T05:05:45.081Z,94629.8
2022-11-04T05:06:47.550Z,94628.5
2022-11-04T05:07:50.044Z,94627.6
2022-11-04T05:08:52.507Z,94629.9
2022-11-04T05:09:54.708Z,94636.4
2022-11-04T05:10:56.902Z,94633.3
2022-11-04T05:11:59.106Z,94636
2022-11-04T05:13:01.672Z,94635.1
2022-11-04T05:14:03.891Z,94640.9
2022-11-04T05:15:06.361Z,94643.1
2022-11-04T05:16:08.573Z,94646.4
2022-11-04T05:17:10.491Z,94643.1
2022-11-04T05:18:13.131Z,94641.1
2022-11-04T05:19:14.799Z,94640.9
2022-11-04T05:20:16.716Z,94633.9
2022-11-04T05:21:19.199Z,94629.7
2022-11-04T05:22:21.417Z,94627.6
2022-11-04T05:23:23.904Z,94625
2022-11-04T05:24:25.539Z,94621.1
2022-11-04T05:25:27.733Z,94623.3
2022-11-04T05:26:29.664Z,94625.4
2022-11-04T05:27:31.579Z,94627.8
2022-11-04T05:28:33.825Z,94626.5
2022-11-04T05:29:36.315Z,94628.8
2022-11-04T05:30:38.519Z,94626
2022-11-04T05:31:41.000Z,94621.8
2022-11-04T05:32:43.483Z,94622.2
2022-11-04T05:33:45.703Z,94620.3
2022-11-04T05:34:47.891Z,94619.2
2022-11-04T05:36:04.720Z,94625.9
2022-11-04T05:37:06.916Z,94630
2022-11-04T05:38:09.116Z,94633.1
2022-11-04T05:39:11.596Z,94638.5
2022-11-04T05:40:13.794Z,94634.4
2022-11-04T05:41:15.990Z,94635.8
2022-11-04T05:42:17.937Z,94638.4
2022-11-04T05:43:19.881Z,94638.4
2022-11-04T05:44:22.419Z,94639
2022-11-04T05:45:24.629Z,94637.5
2022-11-04T05:46:26.830Z,94640.6
2022-11-04T05:47:29.302Z,94645.1
2022-11-04T05:48:33.163Z,94644.3
2022-11-04T05:49:37.687Z,94647.1
2022-11-04T05:50:40.185Z,94644.2
2022-11-04T05:51:42.081Z,94646.7
2022-11-04T05:52:44.560Z,94642.2
2022-11-04T05:53:46.736Z,94636
2022-11-04T05:54:49.216Z,94641
2022-11-04T05:55:51.123Z,94638.8
2022-11-04T05:56:53.612Z,94641.5
2022-11-04T05:57:55.784Z,94643.7
2022-11-04T05:58:57.983Z,94645
2022-11-04T06:00:00.520Z,94641.5
2022-11-04T06:01:02.467Z,94644.9
2022-11-04T06:02:05.554Z,94644.7
2022-11-04T06:04:12.748Z,94646.9
2022-11-04T06:05:14.941Z,94652.7
2022-11-04T06:06:17.408Z,94654.5
2022-11-04T06:07:19.592Z,94654.5
2022-11-04T06:08:22.070Z,94649.8
2022-11-04T06:09:24.261Z,94645.2
2022-11-04T06:10:26.200Z,94642.1
2022-11-04T06:11:28.683Z,94636.8
2022-11-04T06:12:30.882Z,94638.7
2022-11-04T06:13:33.084Z,94636.8
2022-11-04T06:14:35.259Z,94636.5
2022-11-04T06:15:37.829Z,94641
2022-11-04T06:16:40.313Z,94643
2022-11-04T06:17:42.520Z,94646.6
2022-11-04T06:18:45.000Z,94651.4
2022-11-04T06:19:46.909Z,94656.3
2022-11-04T06:20:49.407Z,94659.9
2022-11-04T06:21:51.887Z,94652.7
2022-11-04T06:22:54.100Z,94652.9
2022-11-04T06:23:56.305Z,94645.3
2022-11-04T06:24:58.296Z,94641.4
2022-11-04T06:26:00.876Z,94638.3
2022-11-04T06:27:03.354Z,94637.7
2022-11-04T06:28:06.055Z,94636.1
2022-11-04T06:29:08.598Z,94636.9
2022-11-04T06:30:11.035Z,94639.2
2022-11-04T06:31:13.604Z,94639.3
2022-11-04T06:32:15.666Z,94642.4
2022-11-04T06:33:18.165Z,94643.9
2022-11-04T06:34:20.420Z,94645.6
2022-11-04T06:35:22.365Z,94650.8
2022-11-04T06:36:24.888Z,94657.9
2022-11-04T06:37:27.428Z,94665.9
2022-11-04T06:38:29.948Z,94668.1
2022-11-04T06:39:32.133Z,94664.5
2022-11-04T06:40:34.051Z,94668.9
2022-11-04T06:41:35.395Z,94667.1
2022-11-04T06:42:37.941Z,94664.5
2022-11-04T06:43:40.184Z,94667.8
2022-11-04T06:44:42.901Z,94668.3
2022-11-04T06:45:44.816Z,94673.4
2022-11-04T06:46:47.378Z,94675.5
2022-11-04T06:47:49.607Z,94681
2022-11-04T06:48:51.511Z,94679.7
2022-11-04T06:49:53.746Z,94679.5
2022-11-04T06:50:56.303Z,94681.7
2022-11-04T06:51:58.833Z,94681.8
2022-11-04T06:53:01.068Z,94683.6
2022-11-04T06:54:03.283Z,94679.1
2022-11-04T06:55:05.599Z,94677.4
2022-11-04T06:56:07.792Z,94674.9
2022-11-04T06:57:10.000Z,94671.1
2022-11-04T06:58:12.476Z,94663.7
2022-11-04T06:59:14.125Z,94655
2022-11-04T07:00:16.050Z,94652.8
2022-11-04T07:02:24.045Z,94652.8
2022-11-04T07:03:26.492Z,94656.3
2022-11-04T07:04:28.688Z,94654.5
2022-11-04T07:05:30.904Z,94656.7
2022-11-04T07:06:33.376Z,94657.1
2022-11-04T07:07:40.062Z,94659.8
2022-11-04T07:08:41.995Z,94657.3
2022-11-04T07:09:44.187Z,94653.6
2022-11-04T07:10:46.395Z,94653.3
2022-11-04T07:11:48.604Z,94654.4
2022-11-04T07:12:50.823Z,94660.6
2022-11-04T07:13:53.018Z,94667.1
2022-11-04T07:14:55.510Z,94670
2022-11-04T07:15:57.982Z,94670.1
2022-11-04T07:17:00.458Z,94671.1
2022-11-04T07:18:02.464Z,94672.4
2022-11-04T07:19:04.684Z,94671.1
2022-11-04T07:20:06.879Z,94672
2022-11-04T07:22:13.791Z,94676.3
2022-11-04T07:23:15.723Z,94676.3
2022-11-04T07:24:17.915Z,94681.1
2022-11-04T07:25:19.858Z,94677.6
2022-11-04T07:26:22.051Z,94678.3
2022-11-04T07:27:24.536Z,94687.2
2022-11-04T07:28:26.736Z,94686.2
2022-11-04T07:29:29.232Z,94694.6
2022-11-04T07:30:31.462Z,94704.4
2022-11-04T07:31:33.736Z,94711.3
2022-11-04T07:32:35.713Z,94713
2022-11-04T07:33:37.736Z,94715.9
2022-11-04T07:34:40.233Z,94721.4
2022-11-04T07:35:42.716Z,94726.7
2022-11-04T07:36:44.925Z,94725.3
2022-11-04T07:37:47.437Z,94721.1
2022-11-04T07:38:49.699Z,94716
2022-11-04T07:39:52.277Z,94712.6
2022-11-04T07:40:54.786Z,94703
2022-11-04T07:43:02.010Z,94693.7
2022-11-04T07:44:04.209Z,94692.5
2022-11-04T07:45:06.689Z,94693.6
2022-11-04T07:46:08.636Z,94693.7
2022-11-04T07:47:10.842Z,94691
2022-11-04T07:48:13.600Z,94690.5
2022-11-04T07:49:15.871Z,94693.5
2022-11-04T07:50:18.718Z,94691.1
2022-11-04T07:51:21.018Z,94695.2
2022-11-04T07:52:22.962Z,94701.3
2022-11-04T07:53:24.325Z,94717.1
2022-11-04T07:54:26.558Z,94725.5
2022-11-04T07:55:28.480Z,94732.3
2022-11-04T07:56:30.697Z,94735.9
2022-11-04T07:57:33.176Z,94740.4
2022-11-04T07:58:35.365Z,94743.9
2022-11-04T07:59:37.292Z,94741.7
2022-11-04T08:00:39.502Z,94735.8
2022-11-04T08:01:42.078Z,94732.3
2022-11-04T08:02:44.404Z,94719.2
2022-11-04T08:03:46.433Z,94721.9
2022-11-04T08:04:48.445Z,94721.6
2022-11-04T08:05:50.415Z,94723
2022-11-04T08:06:52.069Z,94725.5
2022-11-04T08:07:54.016Z,94722.7
2022-11-04T08:08:56.235Z,94725.4
2022-11-04T08:09:58.512Z,94716.3
2022-11-04T08:10:59.897Z,94712
2022-11-04T08:12:02.100Z,94710.2
2022-11-04T08:13:04.062Z,94713.5
2022-11-04T08:14:05.982Z,94704.8
2022-11-04T08:15:08.479Z,94703.1
2022-11-04T08:16:10.712Z,94700.8
2022-11-04T08:17:12.934Z,94698.8
2022-11-04T08:18:14.599Z,94691.3
2022-11-04T08:19:16.542Z,94690.5
2022-11-04T08:20:18.895Z,94687.1
2022-11-04T08:21:21.124Z,94688.1
2022-11-04T08:22:23.340Z,94685.2
2022-11-04T08:23:29.772Z,94685
2022-11-04T08:24:32.251Z,94683.8
2022-11-04T08:25:34.836Z,94687.3
2022-11-04T08:26:37.640Z,94682.4
2022-11-04T08:27:40.298Z,94682.9
2022-11-04T08:28:42.788Z,94682.5
2022-11-04T08:29:44.709Z,94682.9
2022-11-04T08:30:46.628Z,94681.3
2022-11-04T08:31:48.833Z,94677.9
2022-11-04T08:32:51.353Z,94679
2022-11-04T08:33:53.562Z,94673.3
2022-11-04T08:34:55.751Z,94670.7
2022-11-04T08:35:58.005Z,94667.5
2022-11-04T08:37:00.285Z,94673.3
2022-11-04T08:38:02.233Z,94672.4
2022-11-04T08:40:09.447Z,94679
2022-11-04T08:41:11.657Z,94675.9
2022-11-04T08:42:13.861Z,94678
2022-11-04T08:43:15.804Z,94672.5
2022-11-04T08:44:18.291Z,94672.8
2022-11-04T08:45:20.858Z,94674.4
2022-11-04T08:46:23.348Z,94672.3
2022-11-04T08:47:25.830Z,94670.3
2022-11-04T08:48:28.299Z,94669.1
2022-11-04T08:49:30.780Z,94665.7
2022-11-04T08:50:33.261Z,94661.5
2022-11-04T08:51:35.798Z,94660.6
2022-11-04T08:52:38.355Z,94652.4
2022-11-04T08:53:40.535Z,94649.4
2022-11-04T08:54:43.032Z,94646.6
2022-11-04T08:55:45.509Z,94646.9
2022-11-04T08:56:47.743Z,94643.6
2022-11-04T08:57:49.950Z,94646.1
2022-11-04T08:58:52.155Z,94645.3
2022-11-04T08:59:54.710Z,94644.6
2022-11-04T09:00:56.616Z,94650.5
2022-11-04T09:01:59.214Z,94651
2022-11-04T09:03:01.523Z,94653.5
2022-11-04T09:04:04.504Z,94655.6
2022-11-04T09:05:06.297Z,94654.6
2022-11-04T09:06:08.508Z,94657
2022-11-04T09:07:10.776Z,94654.1
2022-11-04T09:08:13.135Z,94651
2022-11-04T09:09:15.340Z,94649.4
2022-11-04T09:10:17.849Z,94645
2022-11-04T09:11:20.059Z,94638.3
2022-11-04T09:12:22.674Z,94634.5
2022-11-04T09:13:24.600Z,94640.5
2022-11-04T09:14:26.532Z,94636.2
2022-11-04T09:15:28.743Z,94634.4
2022-11-04T09:16:30.678Z,94632.4
2022-11-04T09:17:32.594Z,94633.2
2022-11-04T09:18:34.531Z,94634.7
2022-11-04T09:19:36.431Z,94634.9
2022-11-04T09:20:38.371Z,94636.6
2022-11-04T09:21:40.410Z,94637
2022-11-04T09:23:48.206Z,94637.6
2022-11-04T09:24:50.541Z,94637.6
2022-11-04T09:25:53.045Z,94635
2022-11-04T09:26:54.704Z,94637.8
2022-11-04T09:27:57.352Z,94638.6
2022-11-04T09:28:59.983Z,94639.7
2022-11-04T09:30:02.524Z,94639.7
2022-11-04T09:31:04.980Z,94640.1
2022-11-04T09:32:07.171Z,94642.9
2022-11-04T09:33:10.827Z,94638.4
2022-11-04T09:34:13.908Z,94641
2022-11-04T09:35:15.832Z,94634.5
2022-11-04T09:36:18.418Z,94638.4
2022-11-04T09:37:20.902Z,94634.7
2022-11-04T09:38:23.098Z,94636.3
2022-11-04T09:39:25.622Z,94635.7
2022-11-04T09:40:28.066Z,94637.6
2022-11-04T09:41:30.559Z,94644.3
2022-11-04T09:42:33.029Z,94647.6
2022-11-04T09:43:35.775Z,94650.8
2022-11-04T09:45:42.952Z,94658.8
2022-11-04T09:46:44.606Z,94662.4
2022-11-04T09:47:47.089Z,94664.5
2022-11-04T09:48:49.031Z,94667.5
2022-11-04T09:49:51.225Z,94663.5
2022-11-04T09:50:53.162Z,94667.3
2022-11-04T09:51:57.538Z,94659.3
2022-11-04T09:53:00.028Z,94665.6
2022-11-04T09:54:02.230Z,94662.7
2022-11-04T09:55:04.957Z,94661.3
2022-11-04T09:56:07.468Z,94660.4
2022-11-04T09:57:09.961Z,94659.6
2022-11-04T09:58:12.829Z,94653.8
2022-11-04T09:59:15.081Z,94657.4
2022-11-04T10:00:17.261Z,94650.7
2022-11-04T10:01:20.497Z,94650.5
2022-11-04T10:02:24.196Z,94646.1
2022-11-04T10:03:26.505Z,94641.3
2022-11-04T10:04:28.429Z,94638.6
2022-11-04T10:05:30.069Z,94636
2022-11-04T10:06:32.550Z,94630.3
2022-11-04T10:07:35.024Z,94633.8
2022-11-04T10:08:39.673Z,94623.1
2022-11-04T10:09:41.879Z,94622.2
2022-11-04T10:10:44.855Z,94617.8
2022-11-04T10:11:47.442Z,94619.7
2022-11-04T10:12:49.660Z,94616.1
2022-11-04T10:13:51.587Z,94618.3
2022-11-04T10:14:53.627Z,94620
2022-11-04T10:15:56.105Z,94616.4
2022-11-04T10:16:58.308Z,94615
2022-11-04T10:18:00.249Z,94618.2
2022-11-04T10:19:02.440Z,94618.8
2022-11-04T10:20:04.074Z,94619.4
2022-11-04T10:21:06.284Z,94620.5
2022-11-04T10:22:08.214Z,94622.2
2022-11-04T10:23:12.294Z,94622.4
2022-11-04T10:24:14.304Z,94621.4
2022-11-04T10:25:16.779Z,94623.1
2022-11-04T10:26:19.651Z,94624.6
2022-11-04T10:27:22.250Z,94619.9
2022-11-04T10:28:24.464Z,94617.1
2022-11-04T10:29:26.943Z,94615.7
2022-11-04T10:30:29.545Z,94612.7
2022-11-04T10:31:32.055Z,94614
2022-11-04T10:32:33.982Z,94620.5
2022-11-04T10:33:36.480Z,94617.4
2022-11-04T10:34:38.964Z,94622.1
2022-11-04T10:35:41.469Z,94616.9
2022-11-04T10:36:43.445Z,94611.3
2022-11-04T10:37:45.663Z,94603.8
2022-11-04T10:38:47.881Z,94597.9
2022-11-04T10:39:50.084Z,94593
2022-11-04T10:40:52.283Z,94595
2022-11-04T10:41:54.813Z,94590.8
2022-11-04T10:42:57.116Z,94589.9
2022-11-04T10:43:59.591Z,94590
2022-11-04T10:45:01.545Z,94592.5
2022-11-04T10:46:03.910Z,94592.2
2022-11-04T10:47:06.113Z,94595.7
2022-11-04T10:48:08.317Z,94594.2
2022-11-04T10:49:10.791Z,94587.7
2022-11-04T10:51:18.263Z,94586.1
2022-11-04T10:53:24.885Z,94589.1
2022-11-04T10:54:27.062Z,94590.9
2022-11-04T10:55:29.003Z,94588
2022-11-04T10:56:31.515Z,94590.2
2022-11-04T10:57:34.222Z,94589
2022-11-04T10:58:36.774Z,94590.6
2022-11-04T10:59:38.975Z,94591.3
2022-11-04T11:00:41.698Z,94588.8
2022-11-04T11:01:44.341Z,94590.9
2022-11-04T11:02:47.025Z,94587.2
2022-11-04T11:03:49.223Z,94589.8
2022-11-04T11:04:51.413Z,94586.6
2022-11-04T11:05:53.884Z,94586.9
2022-11-04T11:06:56.380Z,94591
2022-11-04T11:07:58.293Z,94594.3
2022-11-04T11:08:59.692Z,94601.3
2022-11-04T11:10:02.179Z,94595.3
2022-11-04T11:11:04.665Z,94599.9
2022-11-04T11:13:13.113Z,94602.5
2022-11-04T11:14:15.614Z,94601.8
2022-11-04T11:15:18.091Z,94602.6
2022-11-04T11:16:20.301Z,94599.9
2022-11-04T11:17:22.831Z,94605.5
2022-11-04T11:18:25.328Z,94603.9
2022-11-04T11:19:27.247Z,94600.8
2022-11-04T11:20:29.736Z,94606.7
2022-11-04T11:21:32.236Z,94602.4
2022-11-04T11:22:34.205Z,94603.7
2022-11-04T11:23:36.674Z,94605.9
2022-11-04T11:24:38.606Z,94607.7
2022-11-04T11:25:40.546Z,94607.3
2022-11-04T11:26:43.042Z,94608.5
2022-11-04T11:27:45.220Z,94606.7
2022-11-04T11:28:47.520Z,94610.8
2022-11-04T11:29:50.002Z,94609.8
2022-11-04T11:30:51.944Z,94613.7
2022-11-04T11:31:53.862Z,94617.2
2022-11-04T11:32:56.378Z,94617.1
2022-11-04T11:33:58.603Z,94621.7
2022-11-04T11:35:01.084Z,94617.9
2022-11-04T11:36:03.285Z,94624.2
2022-11-04T11:37:05.787Z,94622.2
2022-11-04T11:38:07.959Z,94625.6
2022-11-04T11:39:09.926Z,94623.3
2022-11-04T11:40:11.576Z,94623.1
2022-11-04T11:42:18.773Z,94627.2
2022-11-04T11:43:21.247Z,94624
2022-11-04T11:44:23.675Z,94624.3
2022-11-04T11:45:26.165Z,94626.2
2022-11-04T11:46:28.362Z,94628.5
2022-11-04T11:47:30.833Z,94629
2022-11-04T11:48:33.079Z,94630.6
2022-11-04T11:49:35.559Z,94625.9
2022-11-04T11:50:38.072Z,94624.3
2022-11-04T11:51:40.552Z,94621.6
2022-11-04T11:52:42.199Z,94623.4
2022-11-04T11:53:44.411Z,94624.9
2022-11-04T11:54:46.899Z,94617.7
2022-11-04T11:55:49.406Z,94620.2
2022-11-04T12:02:17.740Z,94621.2
2022-11-04T12:03:25.496Z,94622
2022-11-04T12:11:31.488Z,94617.6
2022-11-04T12:12:33.694Z,94618.2
2022-11-04T12:13:35.902Z,94618.2
2022-11-04T12:14:38.402Z,94618.9
2022-11-04T12:15:40.912Z,94614.1
2022-11-04T12:16:43.452Z,94618.3
2022-11-04T12:17:46.032Z,94612.9
2022-11-04T12:18:48.569Z,94613.5
2022-11-04T12:19:50.817Z,94612.8
2022-11-04T12:20:53.134Z,94610.7
2022-11-04T12:21:54.945Z,94613.4
2022-11-04T12:22:57.160Z,94612.1
2022-11-04T12:23:59.682Z,94610.6
2022-11-04T12:25:01.606Z,94617.4
2022-11-04T12:26:03.786Z,94611.1
2022-11-04T12:27:06.291Z,94610.8
2022-11-04T12:28:08.576Z,94609
2022-11-04T12:29:10.546Z,94603.7
2022-11-04T12:30:12.554Z,94600.8
2022-11-04T12:31:14.928Z,94597.6
2022-11-04T12:32:17.398Z,94595
2022-11-04T12:33:19.669Z,94590
2022-11-04T12:34:22.177Z,94585.8
2022-11-04T12:35:24.681Z,94583.5
2022-11-04T12:36:26.596Z,94579.9
2022-11-04T12:37:29.076Z,94583.1
2022-11-04T12:38:30.695Z,94585.3
2022-11-04T12:39:33.184Z,94590
2022-11-04T12:40:35.649Z,94591
2022-11-04T12:42:43.131Z,94597.2
2022-11-04T12:43:45.352Z,94607.6
2022-11-04T12:44:47.836Z,94609
2022-11-04T12:45:49.761Z,94615.7
2022-11-04T12:46:51.952Z,94626.3
2022-11-04T12:47:53.895Z,94624.4
2022-11-04T12:50:00.976Z,94640.2
2022-11-04T12:51:03.508Z,94648.4
2022-11-04T12:52:05.430Z,94647.3
2022-11-04T12:53:08.901Z,94649.3
2022-11-04T12:54:11.737Z,94654.2
2022-11-04T12:55:13.961Z,94654.2
2022-11-04T12:56:16.179Z,94660.2
2022-11-04T12:57:18.112Z,94660.4
2022-11-04T12:58:20.584Z,94662.2
2022-11-04T12:59:23.080Z,94665.6
2022-11-04T13:00:25.059Z,94665.6
2022-11-04T13:01:28.077Z,94658.7
2022-11-04T13:02:30.556Z,94654.9
2022-11-04T13:03:32.608Z,94658.1
2022-11-04T13:04:35.126Z,94651.7
2022-11-04T13:05:37.414Z,94650.6
2022-11-04T13:06:39.970Z,94646.7
2022-11-04T13:07:42.191Z,94648.8
2022-11-04T13:08:44.384Z,94643